Flight Track Log - Related Links

Times and Time Zones

All times are in EST time to prevent confusion due to time zone crossing. See the N2158U flight status page for this flight to view local times or setup timezone preferences in your user account.

Time Position Orientation Groundspeed Altitude Reporting Facility
EST Latitude Longitude Course Direction KTS MPH feet Rate Location/Type
Mon 09:45:14 AM 43.9100 -107.3656 154° Southeast 169 194 9,200  Level Denver Center
Mon 09:46:14 AM 43.8456 -107.3211 154° Southeast 218 251 11,100 2,380 Climbing Salt Lake Center
Mon 09:47:15 AM 43.7714 -107.2694 153° Southeast 275 316 14,000 2,852 Climbing Salt Lake Center
Mon 09:48:16 AM 43.6989 -107.2114 150° Southeast 297 342 16,900 2,607 Climbing Salt Lake Center
Mon 09:49:17 AM 43.6283 -107.1497 148° Southeast 302 348 19,300 2,488 Climbing Salt Lake Center
Mon 09:50:19 AM 43.5572 -107.0878 148° Southeast 304 350 22,000 2,488 Climbing Salt Lake Center
Mon 09:51:20 AM 43.4861 -107.0333 151° Southeast 295 339 24,400 2,213 Climbing Salt Lake Center
Mon 09:52:21 AM 43.4022 -106.9894 159° South 292 336 26,500 1,967 Climbing Salt Lake Center
Mon 09:53:22 AM 43.3156 -106.9378 157° South 307 353 28,400 1,672 Climbing Salt Lake Center
Mon 09:54:23 AM 43.2333 -106.8825 154° Southeast 322 371 29,900 1,475 Climbing Salt Lake Center
Mon 09:55:24 AM 43.1522 -106.8328 156° South 333 383 31,400 1,463 Climbing Salt Lake Center
Mon 09:56:26 AM 43.0706 -106.7817 155° Southeast 336 387 32,900 1,512 Climbing Salt Lake Center
Mon 09:57:27 AM 42.9747 -106.7225 156° South 337 388 34,500 1,328 Climbing Salt Lake Center
Mon 09:58:28 AM 42.8944 -106.6744 156° South 331 381 35,600 1,171 Climbing Salt Lake Center
Mon 09:59:30 AM 42.8008 -106.6150 155° Southeast 334 384 36,900 1,113 Climbing Denver Center
Mon 10:00:32 AM 42.7203 -106.5667 156° South 331 381 37,900 780 Climbing Denver Center
Mon 10:01:33 AM 42.6386 -106.5150 155° Southeast 338 389 38,500 639 Climbing Denver Center
Mon 10:02:34 AM 42.5411 -106.4572 156° South 343 395 39,200 738 Climbing Denver Center
Mon 10:03:35 AM 42.4556 -106.4025 155° Southeast 352 405 40,000 829 Climbing Denver Center
Mon 10:04:37 AM 42.3586 -106.3442 156° South 345 397 40,900 488 Climbing Denver Center
Mon 10:05:38 AM 42.2756 -106.2922 155° Southeast 345 397 41,000 49 Climbing Denver Center
Mon 10:06:39 AM 42.1886 -106.2397 156° South 355 409 41,000  Level Denver Center
Mon 10:07:41 AM 42.0858 -106.1797 157° South 360 414 41,000  Level Denver Center
Mon 10:08:42 AM 41.9950 -106.1256 156° South 369 425 41,000  Level Denver Center
Mon 10:09:44 AM 41.8908 -106.0619 156° South 369 425 41,000  Level Denver Center
Mon 10:10:45 AM 41.7975 -106.0075 156° South 377 434 41,000  Level Denver Center
Mon 10:11:47 AM 41.6903 -105.9431 156° South 378 435 41,000  Level Denver Center
Mon 10:12:48 AM 41.5981 -105.8878 156° South 379 436 41,000  Level Denver Center
Mon 10:13:50 AM 41.5072 -105.8350 156° South 375 432 41,000 -49 Level Denver Center
Mon 10:14:51 AM 41.3992 -105.7694 156° South 380 437 40,900  Descending Denver Center
Mon 10:15:53 AM 41.3094 -105.7192 157° South 370 426 41,000 49 Climbing Denver Center
Mon 10:16:54 AM 41.2064 -105.6603 157° South 362 417 41,000  Level Denver Center
Mon 10:17:56 AM 41.1169 -105.6067 156° South 366 421 41,000  Level Denver Center
Mon 10:18:58 AM 41.0211 -105.5489 156° South 344 396 41,000  Level Denver Center
Mon 10:19:59 AM 40.9478 -105.5097 158° South 325 374 41,000  Level Denver Center
Mon 10:21:01 AM 40.8719 -105.4639 155° Southeast 302 348 41,000  Level Denver Center
Mon 10:22:03 AM 40.7994 -105.4242 157° South 284 327 41,000  Level Denver Center
Mon 10:23:04 AM 40.7169 -105.3750 156° South 274 315 41,000  Level Denver Center
Mon 10:24:06 AM 40.6503 -105.3375 157° South 263 303 41,000  Level Denver Center
Mon 10:25:08 AM 40.5769 -105.2978 158° South 281 323 41,000  Level Denver Center
Mon 10:26:10 AM 40.4953 -105.2503 156° South 313 360 41,000  Level Denver Center
Mon 10:27:11 AM 40.4086 -105.1961 155° Southeast 345 397 41,000  Level Denver Center
Mon 10:28:13 AM 40.3172 -105.1439 156° South 358 412 41,000  Level Denver Center
Mon 10:29:15 AM 40.2242 -105.0908 156° South 364 419 41,000  Level Denver Center
Mon 10:30:17 AM 40.1131 -105.0283 157° South 363 418 41,000  Level Denver Center
Mon 10:31:19 AM 40.0192 -104.9767 157° South 366 421 41,000  Level Denver Center
Mon 10:32:21 AM 39.9239 -104.9258 158° South 375 432 41,000  Level Denver Center
Mon 10:33:23 AM 39.8192 -104.8686 157° South 381 438 41,000  Level Denver Center
Mon 10:34:25 AM 39.7186 -104.8103 156° South 371 427 41,000  Level Denver Center
Mon 10:35:27 AM 39.6244 -104.7592 157° South 368 423 41,000  Level Denver Center
Mon 10:36:29 AM 39.5228 -104.7028 157° South 371 427 41,000  Level Denver Center
Mon 10:37:31 AM 39.4289 -104.6522 157° South 367 422 41,000  Level Denver Center
Mon 10:38:33 AM 39.3447 -104.6042 156° South 366 421 41,000  Level Denver Center
Mon 10:39:35 AM 39.2303 -104.5419 157° South 371 427 41,000  Level Denver Center
Mon 10:40:38 AM 39.1364 -104.4906 157° South 369 425 41,000  Level Denver Center
Mon 10:41:40 AM 39.0422 -104.4397 157° South 365 420 41,000  Level Denver Center
Mon 10:42:42 AM 38.9472 -104.3869 157° South 370 426 41,000  Level Denver Center
Mon 10:43:44 AM 38.8514 -104.3353 157° South 374 430 41,000  Level Denver Center
Mon 10:44:46 AM 38.7564 -104.2825 157° South 373 429 41,000  Level Denver Center
Mon 10:45:48 AM 38.6428 -104.2211 157° South 371 427 41,000  Level Denver Center
Mon 10:46:49 AM 38.5675 -104.1789 156° South 370 426 41,000  Level Denver Center
Mon 10:47:52 AM 38.4542 -104.1194 158° South 369 425 41,000  Level Denver Center
Mon 10:48:54 AM 38.3489 -104.0642 158° South 367 422 41,000  Level Denver Center
Mon 10:49:56 AM 38.2578 -104.0156 157° South 370 426 41,000  Level Denver Center
Mon 10:50:58 AM 38.1511 -103.9597 158° South 371 427 41,000  Level Denver Center
Mon 10:52:00 AM 38.0614 -103.9111 157° South 368 423 41,000  Level Denver Center
Mon 10:53:02 AM 37.9694 -103.8631 158° South 369 425 41,000  Level Denver Center
Mon 10:54:04 AM 37.8633 -103.8072 157° South 368 423 41,000  Level Denver Center
Mon 10:55:19 AM 37.7414 -103.7428 157° South 368 423 41,000  Level Denver Center
Mon 10:56:21 AM 37.6508 -103.6931 157° South 367 422 41,000  Level Denver Center
Mon 10:57:23 AM 37.5589 -103.6456 158° South 368 423 41,000  Level Denver Center
Mon 10:58:25 AM 37.4525 -103.5906 158° South 367 422 41,000  Level Denver Center
Mon 10:59:27 AM 37.3617 -103.5433 158° South 367 422 41,000  Level Denver Center
Mon 11:00:29 AM 37.2572 -103.4894 158° South 364 419 41,000  Level Denver Center
Mon 11:01:31 AM 37.1678 -103.4439 158° South 361 415 41,000 -48 Level Denver Center
Mon 11:02:33 AM 37.0653 -103.3919 158° South 356 410 40,900  Descending Denver Center
Mon 11:03:35 AM 36.9775 -103.3472 158° South 354 407 41,000 48 Climbing Denver Center
Mon 11:04:37 AM 36.8753 -103.2964 158° South 353 406 41,000  Level Denver Center
Mon 11:06:00 AM 36.7594 -103.2358 157° South 355 409 41,000  Level Albuquerque Center
Mon 11:07:02 AM 36.6575 -103.1828 157° South 355 409 41,000  Level Albuquerque Center
Mon 11:08:04 AM 36.5767 -103.1425 158° South 351 404 41,000  Level Albuquerque Center
Mon 11:09:06 AM 36.4692 -103.0886 158° South 352 405 41,000  Level Albuquerque Center
Mon 11:10:08 AM 36.3767 -103.0428 158° South 353 406 41,000  Level Albuquerque Center
Mon 11:11:10 AM 36.2842 -102.9961 158° South 354 407 41,000  Level Albuquerque Center
Mon 11:12:12 AM 36.1911 -102.9486 158° South 356 410 41,000  Level Albuquerque Center
Mon 11:13:14 AM 36.0986 -102.9025 158° South 355 409 41,000  Level Albuquerque Center
Mon 11:14:16 AM 36.0119 -102.8606 159° South 357 411 41,000  Level Albuquerque Center
Mon 11:15:18 AM 35.9008 -102.8042 158° South 360 414 41,000  Level Albuquerque Center
Mon 11:16:20 AM 35.8086 -102.7556 157° South 361 415 41,000  Level Albuquerque Center
Mon 11:17:22 AM 35.7172 -102.7094 158° South 358 412 41,000  Level Albuquerque Center
Mon 11:18:24 AM 35.6269 -102.6650 158° South 353 406 41,000  Level Albuquerque Center
Mon 11:19:26 AM 35.5253 -102.6156 158° South 352 405 41,000  Level Albuquerque Center
Mon 11:20:28 AM 35.4275 -102.5700 159° South 350 403 41,000  Level Albuquerque Center
Mon 11:21:30 AM 35.3372 -102.5261 158° South 350 403 41,000  Level Albuquerque Center
Mon 11:22:32 AM 35.2458 -102.4819 158° South 352 405 41,000  Level Albuquerque Center
Mon 11:23:34 AM 35.1553 -102.4381 158° South 353 406 41,000  Level Albuquerque Center
Mon 11:24:36 AM 35.0631 -102.3939 159° South 355 409 41,000  Level Albuquerque Center
Mon 11:25:38 AM 34.9711 -102.3503 159° South 356 410 41,000  Level Albuquerque Center
Mon 11:26:40 AM 34.8608 -102.2961 158° South 358 412 41,000  Level Albuquerque Center
Mon 11:27:43 AM 34.7689 -102.2517 158° South 357 411 41,000  Level Albuquerque Center
Mon 11:28:45 AM 34.6775 -102.2053 157° South 358 412 41,000  Level Albuquerque Center
Mon 11:29:47 AM 34.5858 -102.1617 159° South 355 409 41,000  Level Albuquerque Center
Mon 11:30:50 AM 34.4944 -102.1183 159° South 354 407 41,000  Level Albuquerque Center
Mon 11:31:51 AM 34.3844 -102.0642 158° South 356 410 41,000  Level Albuquerque Center
Mon 11:32:53 AM 34.2917 -102.0203 159° South 358 412 41,000  Level Albuquerque Center
Mon 11:33:55 AM 34.2011 -101.9775 159° South 353 406 41,000  Level Albuquerque Center
Mon 11:35:14 AM 34.0739 -101.9156 158° South 353 406 41,000  Level Fort Worth Center
Mon 11:36:16 AM 33.9922 -101.8792 160° South 352 405 41,000  Level Fort Worth Center
Mon 11:37:18 AM 33.9003 -101.8356 159° South 354 407 41,000  Level Fort Worth Center
Mon 11:38:20 AM 33.7914 -101.7817 158° South 354 407 41,000  Level Fort Worth Center
Mon 11:39:22 AM 33.7006 -101.7381 158° South 354 407 41,000  Level Fort Worth Center
Mon 11:40:24 AM 33.6083 -101.6953 159° South 355 409 41,000  Level Fort Worth Center
Mon 11:41:26 AM 33.5169 -101.6533 159° South 353 406 41,000  Level Fort Worth Center
Mon 11:42:28 AM 33.4264 -101.6108 159° South 351 404 41,000  Level Fort Worth Center
Mon 11:43:31 AM 33.3350 -101.5697 159° South 351 404 41,000  Level Fort Worth Center
Mon 11:44:33 AM 33.2236 -101.5181 159° South 356 410 41,000  Level Fort Worth Center
Mon 11:45:35 AM 33.1328 -101.4761 159° South 353 406 41,000  Level Fort Worth Center
Mon 11:46:37 AM 33.0394 -101.4331 159° South 357 411 41,000  Level Fort Worth Center
Mon 11:47:39 AM 32.9375 -101.3864 159° South 359 413 41,000  Level Fort Worth Center
Mon 11:48:41 AM 32.8442 -101.3436 159° South 360 414 41,000  Level Fort Worth Center
Mon 11:49:43 AM 32.7506 -101.3000 159° South 362 417 41,000  Level Fort Worth Center
Mon 11:50:45 AM 32.6586 -101.2578 159° South 358 412 41,000  Level Fort Worth Center
Mon 11:51:47 AM 32.5647 -101.2161 159° South 359 413 41,000  Level Fort Worth Center
Mon 11:52:49 AM 32.4528 -101.1644 159° South 360 414 41,000  Level Fort Worth Center
Mon 11:53:51 AM 32.3583 -101.1219 159° South 363 418 41,000  Level Fort Worth Center
Mon 11:54:54 AM 32.2653 -101.0794 159° South 360 414 41,000  Level Fort Worth Center
Mon 11:55:56 AM 32.1728 -101.0378 159° South 356 410 41,000  Level Fort Worth Center
Mon 11:56:58 AM 32.0656 -100.9900 159° South 358 412 41,000  Level Fort Worth Center
Mon 11:58:00 AM 31.9722 -100.9475 159° South 358 412 41,000  Level Fort Worth Center
Mon 11:59:02 AM 31.8800 -100.9053 159° South 355 409 41,000  Level Fort Worth Center
Mon 12:00:04 PM 31.7878 -100.8644 159° South 352 405 41,000 -387 Level Fort Worth Center
Mon 12:01:06 PM 31.6922 -100.8214 159° South 363 418 40,200 -677 Descending Fort Worth Center
Mon 12:02:08 PM 31.5939 -100.7758 158° South 376 433 39,600 -581 Descending Fort Worth Center
Mon 12:03:10 PM 31.4739 -100.7211 159° South 383 441 39,000 -290 Descending Fort Worth Center
Mon 12:04:12 PM 31.3750 -100.6778 159° South 378 435 39,000  Level Fort Worth Center
Mon 12:04:52 PM 31.3261 -100.6569 160° South 376 433 39,000 -118 Level Houston Center
Mon 12:05:54 PM 31.2111 -100.6069 160° South 370 426 38,800 -823 Descending Houston Center
Mon 12:06:56 PM 31.1114 -100.5636 160° South 379 436 37,300 -1,403 Descending Houston Center
Mon 12:07:58 PM 31.0169 -100.5222 159° South 367 422 35,900 -1,645 Descending Houston Center
Mon 12:09:00 PM 30.9239 -100.4825 160° South 359 413 33,900 -1,694 Descending Houston Center
Mon 12:10:02 PM 30.8289 -100.4414 160° South 363 418 32,400 -1,536 Descending Houston Center
Mon 12:11:05 PM 30.7342 -100.3997 159° South 362 417 30,700 -1,968 Descending Houston Center
Mon 12:12:07 PM 30.6197 -100.3494 159° South 366 421 28,300 -2,129 Descending Houston Center
Mon 12:13:09 PM 30.5231 -100.3078 160° South 368 423 26,300 -1,839 Descending Houston Center
Mon 12:14:11 PM 30.4275 -100.2689 161° South 365 420 24,500 -1,742 Descending Houston Center
Mon 12:15:13 PM 30.3242 -100.2253 160° South 365 420 22,700 -1,548 Descending Houston Center
Mon 12:16:15 PM 30.2394 -100.1861 158° South 357 411 21,300 -1,392 Descending Houston Center
Mon 12:17:18 PM 30.1483 -100.1464 159° South 347 399 19,800 -1,488 Descending Houston Center
Mon 12:18:20 PM 30.0558 -100.1058 159° South 348 400 18,200 -1,597 Descending Houston Center
Mon 12:19:22 PM 29.9644 -100.0658 159° South 346 398 16,500 -2,032 Descending Houston Center
Mon 12:20:24 PM 29.8586 -100.0136 157° South 342 394 14,000 -2,129 Descending Houston Center
Mon 12:21:26 PM 29.7733 -99.9822 162° South 331 381 12,100 -1,742 Descending Houston Center
Mon 12:22:28 PM 29.6908 -99.9514 162° South 321 369 10,400 -1,536 Descending Houston Center
Mon 12:23:31 PM 29.6114 -99.9181 160° South 312 359 8,900 -1,536 Descending Houston Center
Mon 12:24:33 PM 29.5339 -99.8808 157° South 306 352 7,200 -1,306 Descending Houston Center
Mon 12:25:35 PM 29.4639 -99.8506 159° South 283 326 6,200 -677 Descending Houston Center
Mon 12:26:37 PM 29.3897 -99.8211 161° South 268 308 5,800 -387 Descending Houston Center

Login

Don't have an account? Register now (free) for customized features, flight alerts, and more!